sensor_id;sensor_type;location;lat;lon;timestamp;pressure;altitude;pressure_sealevel;temperature;humidity
24858;BME280;12935;50.782;6.074;2023-07-08T00:01:41;99548.03;;;22.29;59.56
24858;BME280;12935;50.782;6.074;2023-07-08T00:04:06;99544.47;;;22.28;60.28
24858;BME280;12935;50.782;6.074;2023-07-08T00:06:32;99545.88;;;22.24;60.81
24858;BME280;12935;50.782;6.074;2023-07-08T00:08:58;99549.91;;;22.23;60.85
24858;BME280;12935;50.782;6.074;2023-07-08T00:11:25;99541.25;;;22.21;61.23
24858;BME280;12935;50.782;6.074;2023-07-08T00:13:50;99540.97;;;22.19;61.47
24858;BME280;12935;50.782;6.074;2023-07-08T00:16:18;99540.19;;;22.18;61.77
24858;BME280;12935;50.782;6.074;2023-07-08T00:18:44;99536.81;;;22.14;62.51
24858;BME280;12935;50.782;6.074;2023-07-08T00:21:11;99545.16;;;22.14;62.71
24858;BME280;12935;50.782;6.074;2023-07-08T00:23:40;99546.56;;;22.10;62.82
24858;BME280;12935;50.782;6.074;2023-07-08T00:26:11;99524.34;;;22.00;63.02
24858;BME280;12935;50.782;6.074;2023-07-08T00:28:38;99535.78;;;22.02;63.25
24858;BME280;12935;50.782;6.074;2023-07-08T00:31:09;99530.06;;;21.97;62.90
24858;BME280;12935;50.782;6.074;2023-07-08T00:33:34;99522.94;;;21.96;63.15
24858;BME280;12935;50.782;6.074;2023-07-08T00:35:59;99525.91;;;21.92;62.58
24858;BME280;12935;50.782;6.074;2023-07-08T00:38:27;99522.94;;;21.96;61.44
24858;BME280;12935;50.782;6.074;2023-07-08T00:40:58;99518.47;;;21.98;60.08
24858;BME280;12935;50.782;6.074;2023-07-08T00:46:12;99519.56;;;22.01;60.38
24858;BME280;12935;50.782;6.074;2023-07-08T00:48:40;99518.78;;;22.00;60.24
24858;BME280;12935;50.782;6.074;2023-07-08T00:51:08;99510.75;;;22.02;60.57
24858;BME280;12935;50.782;6.074;2023-07-08T00:53:38;99513.03;;;22.04;60.92
24858;BME280;12935;50.782;6.074;2023-07-08T00:56:28;99513.53;;;22.02;61.49
24858;BME280;12935;50.782;6.074;2023-07-08T00:59:03;99512.47;;;22.00;61.28
24858;BME280;12935;50.782;6.074;2023-07-08T01:01:31;99514.13;;;21.97;61.81
24858;BME280;12935;50.782;6.074;2023-07-08T01:04:02;99512.75;;;22.02;62.54
24858;BME280;12935;50.782;6.074;2023-07-08T01:06:31;99509.03;;;21.96;62.86
24858;BME280;12935;50.782;6.074;2023-07-08T01:09:04;99512.28;;;21.94;62.35
24858;BME280;12935;50.782;6.074;2023-07-08T01:11:30;99516.44;;;21.99;62.05
24858;BME280;12935;50.782;6.074;2023-07-08T01:13:57;99509.03;;;21.96;61.77
24858;BME280;12935;50.782;6.074;2023-07-08T01:16:24;99499.31;;;21.91;61.72
24858;BME280;12935;50.782;6.074;2023-07-08T01:18:49;99503.47;;;21.96;62.66
24858;BME280;12935;50.782;6.074;2023-07-08T01:21:44;99506.72;;;21.94;63.33
24858;BME280;12935;50.782;6.074;2023-07-08T01:24:10;99504.41;;;21.93;63.93
24858;BME280;12935;50.782;6.074;2023-07-08T01:26:41;99499.78;;;21.90;63.97
24858;BME280;12935;50.782;6.074;2023-07-08T01:29:09;99499.19;;;21.86;64.25
24858;BME280;12935;50.782;6.074;2023-07-08T01:31:35;99487.31;;;21.76;63.59
24858;BME280;12935;50.782;6.074;2023-07-08T01:34:00;99497.34;;;21.83;63.49
24858;BME280;12935;50.782;6.074;2023-07-08T01:36:30;99497.81;;;21.81;63.67
24858;BME280;12935;50.782;6.074;2023-07-08T01:38:56;99486.84;;;21.78;63.36
24858;BME280;12935;50.782;6.074;2023-07-08T01:43:47;99485.63;;;21.79;62.33
24858;BME280;12935;50.782;6.074;2023-07-08T01:46:22;99477.75;;;21.77;61.74
24858;BME280;12935;50.782;6.074;2023-07-08T01:48:52;99471.31;;;21.71;60.97
24858;BME280;12935;50.782;6.074;2023-07-08T01:51:18;99479.16;;;21.73;60.15
24858;BME280;12935;50.782;6.074;2023-07-08T01:53:44;99473.59;;;21.73;59.47
24858;BME280;12935;50.782;6.074;2023-07-08T01:56:11;99466.97;;;21.70;59.10
24858;BME280;12935;50.782;6.074;2023-07-08T01:58:37;99468.53;;;21.71;58.41
24858;BME280;12935;50.782;6.074;2023-07-08T02:01:03;99464.66;;;21.68;57.84
24858;BME280;12935;50.782;6.074;2023-07-08T02:03:29;99459.09;;;21.68;57.21
24858;BME280;12935;50.782;6.074;2023-07-08T02:05:54;99462.34;;;21.67;57.14
24858;BME280;12935;50.782;6.074;2023-07-08T02:08:20;99456.47;;;21.65;56.82
24858;BME280;12935;50.782;6.074;2023-07-08T02:10:54;99450.00;;;21.59;56.24
24858;BME280;12935;50.782;6.074;2023-07-08T02:13:20;99456.94;;;21.63;55.69
24858;BME280;12935;50.782;6.074;2023-07-08T02:15:46;99451.38;;;21.63;55.60
24858;BME280;12935;50.782;6.074;2023-07-08T02:18:12;99456.66;;;21.61;55.56
24858;BME280;12935;50.782;6.074;2023-07-08T02:20:37;99450.00;;;21.59;55.84
24858;BME280;12935;50.782;6.074;2023-07-08T02:23:02;99445.28;;;21.50;55.74
24858;BME280;12935;50.782;6.074;2023-07-08T02:25:28;99448.34;;;21.52;56.13
24858;BME280;12935;50.782;6.074;2023-07-08T02:27:53;99447.13;;;21.44;56.10
24858;BME280;12935;50.782;6.074;2023-07-08T02:30:25;99450.69;;;21.45;56.34
24858;BME280;12935;50.782;6.074;2023-07-08T02:32:50;99452.38;;;21.42;56.52
24858;BME280;12935;50.782;6.074;2023-07-08T02:35:26;99452.09;;;21.40;56.68
24858;BME280;12935;50.782;6.074;2023-07-08T02:37:52;99454.75;;;21.34;56.21
24858;BME280;12935;50.782;6.074;2023-07-08T02:40:18;99450.41;;;21.33;55.52
24858;BME280;12935;50.782;6.074;2023-07-08T02:42:44;99457.22;;;21.32;55.68
24858;BME280;12935;50.782;6.074;2023-07-08T02:45:10;99448.25;;;21.28;56.46
24858;BME280;12935;50.782;6.074;2023-07-08T02:47:35;99447.69;;;21.24;57.16
24858;BME280;12935;50.782;6.074;2023-07-08T02:50:01;99444.72;;;21.10;57.46
24858;BME280;12935;50.782;6.074;2023-07-08T02:52:26;99451.25;;;20.97;58.42
24858;BME280;12935;50.782;6.074;2023-07-08T02:54:52;99454.81;;;20.80;59.79
24858;BME280;12935;50.782;6.074;2023-07-08T02:57:17;99451.91;;;20.74;60.66
24858;BME280;12935;50.782;6.074;2023-07-08T02:59:42;99453.59;;;20.72;61.52
24858;BME280;12935;50.782;6.074;2023-07-08T03:02:07;99461.63;;;20.70;62.36
24858;BME280;12935;50.782;6.074;2023-07-08T03:04:33;99456.66;;;20.64;62.89
24858;BME280;12935;50.782;6.074;2023-07-08T03:06:58;99459.78;;;20.57;63.35
24858;BME280;12935;50.782;6.074;2023-07-08T03:09:24;99451.09;;;20.46;63.84
24858;BME280;12935;50.782;6.074;2023-07-08T03:11:49;99449.13;;;20.38;64.92
24858;BME280;12935;50.782;6.074;2023-07-08T03:14:14;99454.31;;;20.36;65.74
24858;BME280;12935;50.782;6.074;2023-07-08T03:16:40;99458.00;;;20.23;67.11
24858;BME280;12935;50.782;6.074;2023-07-08T03:19:05;99458.47;;;20.22;67.55
24858;BME280;12935;50.782;6.074;2023-07-08T03:21:30;99458.16;;;20.20;68.34
24858;BME280;12935;50.782;6.074;2023-07-08T03:23:56;99469.84;;;20.06;68.98
24858;BME280;12935;50.782;6.074;2023-07-08T03:26:23;99455.03;;;20.00;69.55
24858;BME280;12935;50.782;6.074;2023-07-08T03:28:50;99465.66;;;20.01;70.80
24858;BME280;12935;50.782;6.074;2023-07-08T03:31:16;99457.66;;;20.03;70.76
24858;BME280;12935;50.782;6.074;2023-07-08T03:33:42;99455.97;;;19.96;70.77
24858;BME280;12935;50.782;6.074;2023-07-08T03:36:12;99465.66;;;19.92;71.25
24858;BME280;12935;50.782;6.074;2023-07-08T03:38:38;99468.44;;;19.92;71.56
24858;BME280;12935;50.782;6.074;2023-07-08T03:41:04;99475.97;;;19.91;72.16
24858;BME280;12935;50.782;6.074;2023-07-08T03:43:29;99469.19;;;19.92;73.35
24858;BME280;12935;50.782;6.074;2023-07-08T03:45:55;99470.44;;;19.91;74.54
24858;BME280;12935;50.782;6.074;2023-07-08T03:48:20;99465.78;;;19.88;74.12
24858;BME280;12935;50.782;6.074;2023-07-08T03:50:45;99464.09;;;19.82;75.18
24858;BME280;12935;50.782;6.074;2023-07-08T03:53:11;99470.41;;;19.82;75.75
24858;BME280;12935;50.782;6.074;2023-07-08T03:55:36;99459.78;;;19.81;76.08
24858;BME280;12935;50.782;6.074;2023-07-08T03:58:01;99456.53;;;19.82;76.53
24858;BME280;12935;50.782;6.074;2023-07-08T04:00:27;99467.44;;;19.77;76.11
24858;BME280;12935;50.782;6.074;2023-07-08T04:02:52;99454.50;;;19.74;76.50
24858;BME280;12935;50.782;6.074;2023-07-08T04:05:20;99464.22;;;19.78;76.92
24858;BME280;12935;50.782;6.074;2023-07-08T04:07:46;99466.22;;;19.78;76.93
24858;BME280;12935;50.782;6.074;2023-07-08T04:10:12;99478.22;;;19.75;77.48
24858;BME280;12935;50.782;6.074;2023-07-08T04:12:38;99475.91;;;19.73;78.14
24858;BME280;12935;50.782;6.074;2023-07-08T04:15:04;99467.91;;;19.75;79.32
24858;BME280;12935;50.782;6.074;2023-07-08T04:17:29;99458.19;;;19.71;79.49
24858;BME280;12935;50.782;6.074;2023-07-08T04:19:55;99462.34;;;19.66;80.00
24858;BME280;12935;50.782;6.074;2023-07-08T04:22:23;99468.50;;;19.70;81.38
24858;BME280;12935;50.782;6.074;2023-07-08T04:24:49;99462.19;;;19.70;81.65
24858;BME280;12935;50.782;6.074;2023-07-08T04:27:16;99465.59;;;19.74;82.24
24858;BME280;12935;50.782;6.074;2023-07-08T04:29:43;99458.34;;;19.67;82.81
24858;BME280;12935;50.782;6.074;2023-07-08T04:32:08;99466.94;;;19.69;83.30
24858;BME280;12935;50.782;6.074;2023-07-08T04:34:33;99468.19;;;19.68;84.42
24858;BME280;12935;50.782;6.074;2023-07-08T04:36:59;99467.56;;;19.64;86.46
24858;BME280;12935;50.782;6.074;2023-07-08T04:39:24;99467.00;;;19.78;86.32
24858;BME280;12935;50.782;6.074;2023-07-08T04:41:49;99469.16;;;19.83;86.23
24858;BME280;12935;50.782;6.074;2023-07-08T04:44:15;99457.47;;;19.88;86.24
24858;BME280;12935;50.782;6.074;2023-07-08T04:46:49;99457.19;;;19.95;86.77
24858;BME280;12935;50.782;6.074;2023-07-08T04:49:16;99462.75;;;19.95;86.70
24858;BME280;12935;50.782;6.074;2023-07-08T04:51:42;99465.06;;;19.97;86.60
24858;BME280;12935;50.782;6.074;2023-07-08T04:54:07;99459.50;;;19.97;87.08
24858;BME280;12935;50.782;6.074;2023-07-08T04:56:42;99447.91;;;19.89;87.59
24858;BME280;12935;50.782;6.074;2023-07-08T04:59:09;99456.09;;;19.93;88.58
24858;BME280;12935;50.782;6.074;2023-07-08T05:01:35;99463.66;;;20.02;88.04
24858;BME280;12935;50.782;6.074;2023-07-08T05:04:01;99464.94;;;20.10;87.98
24858;BME280;12935;50.782;6.074;2023-07-08T05:06:27;99466.78;;;20.13;88.10
24858;BME280;12935;50.782;6.074;2023-07-08T05:08:53;99471.56;;;20.12;88.28
24858;BME280;12935;50.782;6.074;2023-07-08T05:11:18;99475.72;;;20.17;89.16
24858;BME280;12935;50.782;6.074;2023-07-08T05:13:43;99471.88;;;20.14;89.82
24858;BME280;12935;50.782;6.074;2023-07-08T05:16:09;99474.03;;;20.10;90.85
24858;BME280;12935;50.782;6.074;2023-07-08T05:18:34;99469.56;;;20.13;91.73
24858;BME280;12935;50.782;6.074;2023-07-08T05:20:59;99473.88;;;20.23;91.82
24858;BME280;12935;50.782;6.074;2023-07-08T05:23:24;99476.97;;;20.25;89.31
24858;BME280;12935;50.782;6.074;2023-07-08T05:25:50;99472.81;;;20.20;90.24
24858;BME280;12935;50.782;6.074;2023-07-08T05:28:15;99476.47;;;20.08;92.29
24858;BME280;12935;50.782;6.074;2023-07-08T05:30:41;99471.84;;;20.05;89.89
24858;BME280;12935;50.782;6.074;2023-07-08T05:33:07;99468.03;;;20.12;89.15
24858;BME280;12935;50.782;6.074;2023-07-08T05:35:33;99464.16;;;20.18;89.27
24858;BME280;12935;50.782;6.074;2023-07-08T05:37:58;99460.78;;;20.32;89.02
24858;BME280;12935;50.782;6.074;2023-07-08T05:40:23;99471.19;;;20.41;88.22
24858;BME280;12935;50.782;6.074;2023-07-08T05:42:49;99470.72;;;20.43;88.16
24858;BME280;12935;50.782;6.074;2023-07-08T05:45:14;99467.16;;;20.51;85.87
24858;BME280;12935;50.782;6.074;2023-07-08T05:47:39;99463.78;;;20.65;81.46
24858;BME280;12935;50.782;6.074;2023-07-08T05:50:05;99455.28;;;20.78;80.96
24858;BME280;12935;50.782;6.074;2023-07-08T05:52:30;99463.63;;;20.87;80.47
24858;BME280;12935;50.782;6.074;2023-07-08T05:54:55;99458.50;;;20.95;76.66
24858;BME280;12935;50.782;6.074;2023-07-08T05:57:21;99462.03;;;21.05;74.70
24858;BME280;12935;50.782;6.074;2023-07-08T05:59:48;99461.13;;;21.08;72.00
24858;BME280;12935;50.782;6.074;2023-07-08T06:02:16;99466.03;;;21.13;71.08
24858;BME280;12935;50.782;6.074;2023-07-08T06:04:41;99463.28;;;21.22;69.96
24858;BME280;12935;50.782;6.074;2023-07-08T06:07:07;99467.88;;;21.34;70.96
24858;BME280;12935;50.782;6.074;2023-07-08T06:09:32;99483.75;;;21.43;70.90
24858;BME280;12935;50.782;6.074;2023-07-08T06:11:58;99477.22;;;21.55;70.68
24858;BME280;12935;50.782;6.074;2023-07-08T06:14:23;99483.53;;;21.64;69.83
24858;BME280;12935;50.782;6.074;2023-07-08T06:16:50;99484.25;;;21.74;69.12
24858;BME280;12935;50.782;6.074;2023-07-08T06:19:15;99475.41;;;21.85;68.19
24858;BME280;12935;50.782;6.074;2023-07-08T06:21:42;99479.66;;;21.95;67.67
24858;BME280;12935;50.782;6.074;2023-07-08T06:24:07;99476.84;;;22.04;67.15
24858;BME280;12935;50.782;6.074;2023-07-08T06:26:33;99491.34;;;22.17;65.68
24858;BME280;12935;50.782;6.074;2023-07-08T06:28:58;99476.88;;;22.28;65.13
24858;BME280;12935;50.782;6.074;2023-07-08T06:31:24;99487.78;;;22.40;64.73
24858;BME280;12935;50.782;6.074;2023-07-08T06:33:49;99490.91;;;22.57;63.70
24858;BME280;12935;50.782;6.074;2023-07-08T06:36:14;99493.13;;;22.68;63.39
24858;BME280;12935;50.782;6.074;2023-07-08T06:38:40;99490.75;;;22.75;63.15
24858;BME280;12935;50.782;6.074;2023-07-08T06:41:05;99488.69;;;22.85;62.49
24858;BME280;12935;50.782;6.074;2023-07-08T06:43:30;99501.78;;;22.94;62.00
24858;BME280;12935;50.782;6.074;2023-07-08T06:45:56;99488.22;;;23.01;62.04
24858;BME280;12935;50.782;6.074;2023-07-08T06:48:21;99480.16;;;23.03;61.82
24858;BME280;12935;50.782;6.074;2023-07-08T06:50:47;99485.94;;;23.15;61.51
24858;BME280;12935;50.782;6.074;2023-07-08T06:53:14;99479.31;;;23.27;60.98
24858;BME280;12935;50.782;6.074;2023-07-08T06:55:39;99481.81;;;23.39;60.28
24858;BME280;12935;50.782;6.074;2023-07-08T06:58:04;99489.91;;;23.52;59.55
24858;BME280;12935;50.782;6.074;2023-07-08T07:00:30;99475.63;;;23.65;58.95
24858;BME280;12935;50.782;6.074;2023-07-08T07:02:55;99478.13;;;23.77;58.15
24858;BME280;12935;50.782;6.074;2023-07-08T07:05:20;99477.03;;;23.90;57.86
24858;BME280;12935;50.782;6.074;2023-07-08T07:07:46;99482.97;;;23.97;57.87
24858;BME280;12935;50.782;6.074;2023-07-08T07:10:11;99482.38;;;24.08;57.20
24858;BME280;12935;50.782;6.074;2023-07-08T07:12:37;99481.09;;;24.24;56.81
24858;BME280;12935;50.782;6.074;2023-07-08T07:15:03;99475.94;;;24.37;56.24
24858;BME280;12935;50.782;6.074;2023-07-08T07:17:28;99484.66;;;24.44;55.67
24858;BME280;12935;50.782;6.074;2023-07-08T07:19:54;99478.72;;;24.57;55.66
24858;BME280;12935;50.782;6.074;2023-07-08T07:22:19;99474.53;;;24.67;55.29
24858;BME280;12935;50.782;6.074;2023-07-08T07:24:45;99483.31;;;24.80;54.97
24858;BME280;12935;50.782;6.074;2023-07-08T07:27:10;99481.59;;;24.89;54.73
24858;BME280;12935;50.782;6.074;2023-07-08T07:29:47;99478.19;;;24.99;54.13
24858;BME280;12935;50.782;6.074;2023-07-08T07:32:14;99481.16;;;25.16;53.27
24858;BME280;12935;50.782;6.074;2023-07-08T07:34:39;99481.53;;;25.29;52.73
24858;BME280;12935;50.782;6.074;2023-07-08T07:37:06;99480.38;;;25.41;52.83
24858;BME280;12935;50.782;6.074;2023-07-08T07:39:35;99478.13;;;25.51;52.45
24858;BME280;12935;50.782;6.074;2023-07-08T07:42:00;99483.63;;;25.66;52.23
24858;BME280;12935;50.782;6.074;2023-07-08T07:44:25;99482.72;;;25.80;51.32
24858;BME280;12935;50.782;6.074;2023-07-08T07:46:52;99487.91;;;25.93;51.63
24858;BME280;12935;50.782;6.074;2023-07-08T07:49:19;99483.34;;;26.01;51.67
24858;BME280;12935;50.782;6.074;2023-07-08T07:51:45;99486.75;;;26.10;52.01
24858;BME280;12935;50.782;6.074;2023-07-08T07:54:10;99493.16;;;26.22;51.82
24858;BME280;12935;50.782;6.074;2023-07-08T07:56:35;99489.66;;;26.33;51.53
24858;BME280;12935;50.782;6.074;2023-07-08T07:59:00;99478.78;;;26.46;50.44
24858;BME280;12935;50.782;6.074;2023-07-08T08:01:26;99480.63;;;26.60;50.71
24858;BME280;12935;50.782;6.074;2023-07-08T08:03:51;99478.13;;;26.73;50.67
24858;BME280;12935;50.782;6.074;2023-07-08T08:06:17;99482.47;;;26.80;50.78
24858;BME280;12935;50.782;6.074;2023-07-08T08:08:43;99483.78;;;26.90;50.69
24858;BME280;12935;50.782;6.074;2023-07-08T08:11:09;99481.00;;;26.96;50.45
24858;BME280;12935;50.782;6.074;2023-07-08T08:13:34;99478.47;;;27.03;50.73
24858;BME280;12935;50.782;6.074;2023-07-08T08:15:59;99474.91;;;27.14;51.23
24858;BME280;12935;50.782;6.074;2023-07-08T08:18:25;99472.88;;;27.20;51.26
24858;BME280;12935;50.782;6.074;2023-07-08T08:20:51;99473.91;;;27.28;50.66
24858;BME280;12935;50.782;6.074;2023-07-08T08:23:16;99481.56;;;27.44;50.50
24858;BME280;12935;50.782;6.074;2023-07-08T08:25:42;99475.22;;;27.66;50.22
24858;BME280;12935;50.782;6.074;2023-07-08T08:28:07;99475.44;;;27.85;49.90
24858;BME280;12935;50.782;6.074;2023-07-08T08:30:34;99484.84;;;28.10;47.93
24858;BME280;12935;50.782;6.074;2023-07-08T08:32:59;99481.00;;;28.13;47.25
24858;BME280;12935;50.782;6.074;2023-07-08T08:35:26;99478.44;;;28.15;47.24
24858;BME280;12935;50.782;6.074;2023-07-08T08:37:51;99483.50;;;28.39;46.64
24858;BME280;12935;50.782;6.074;2023-07-08T08:40:19;99484.25;;;28.39;45.91
24858;BME280;12935;50.782;6.074;2023-07-08T08:42:51;99496.91;;;28.68;45.21
24858;BME280;12935;50.782;6.074;2023-07-08T08:45:19;99486.88;;;28.84;44.63
24858;BME280;12935;50.782;6.074;2023-07-08T08:47:49;99488.06;;;29.00;44.23
24858;BME280;12935;50.782;6.074;2023-07-08T08:50:33;99489.75;;;29.14;44.20
24858;BME280;12935;50.782;6.074;2023-07-08T08:53:03;99495.84;;;29.23;43.56
24858;BME280;12935;50.782;6.074;2023-07-08T08:55:29;99489.84;;;29.38;42.88
24858;BME280;12935;50.782;6.074;2023-07-08T08:58:33;99485.97;;;29.47;43.23
24858;BME280;12935;50.782;6.074;2023-07-08T09:01:06;99496.47;;;29.76;42.05
24858;BME280;12935;50.782;6.074;2023-07-08T09:03:37;99497.91;;;29.58;42.38
24858;BME280;12935;50.782;6.074;2023-07-08T09:06:10;99499.25;;;29.52;42.07
24858;BME280;12935;50.782;6.074;2023-07-08T09:08:37;99498.81;;;29.42;42.55
24858;BME280;12935;50.782;6.074;2023-07-08T09:14:24;99507.28;;;29.42;42.64
24858;BME280;12935;50.782;6.074;2023-07-08T09:19:26;99498.03;;;30.02;40.41
24858;BME280;12935;50.782;6.074;2023-07-08T09:22:07;99488.69;;;30.12;39.41
24858;BME280;12935;50.782;6.074;2023-07-08T09:24:45;99483.41;;;30.27;39.51
24858;BME280;12935;50.782;6.074;2023-07-08T09:27:13;99483.75;;;30.43;39.09
24858;BME280;12935;50.782;6.074;2023-07-08T09:29:38;99487.72;;;30.53;38.50
24858;BME280;12935;50.782;6.074;2023-07-08T09:32:24;99487.84;;;30.66;37.55
24858;BME280;12935;50.782;6.074;2023-07-08T09:34:56;99485.69;;;30.72;36.57
24858;BME280;12935;50.782;6.074;2023-07-08T09:37:28;99482.88;;;30.91;37.40
24858;BME280;12935;50.782;6.074;2023-07-08T09:39:55;99501.69;;;31.01;36.09
24858;BME280;12935;50.782;6.074;2023-07-08T09:42:25;99490.53;;;31.15;36.80
24858;BME280;12935;50.782;6.074;2023-07-08T09:44:59;99490.75;;;31.17;35.75
24858;BME280;12935;50.782;6.074;2023-07-08T09:47:28;99493.22;;;31.39;37.07
24858;BME280;12935;50.782;6.074;2023-07-08T09:49:57;99487.59;;;31.52;36.91
24858;BME280;12935;50.782;6.074;2023-07-08T09:52:22;99489.22;;;31.80;37.36
24858;BME280;12935;50.782;6.074;2023-07-08T09:54:47;99489.47;;;31.95;36.76
24858;BME280;12935;50.782;6.074;2023-07-08T09:57:30;99486.19;;;32.04;35.25
24858;BME280;12935;50.782;6.074;2023-07-08T10:00:08;99476.94;;;32.17;35.25
24858;BME280;12935;50.782;6.074;2023-07-08T10:02:54;99483.59;;;32.32;35.38
24858;BME280;12935;50.782;6.074;2023-07-08T10:05:40;99487.84;;;32.52;34.82
24858;BME280;12935;50.782;6.074;2023-07-08T10:08:17;99483.25;;;32.62;33.44
24858;BME280;12935;50.782;6.074;2023-07-08T10:10:45;99488.25;;;32.69;33.14
24858;BME280;12935;50.782;6.074;2023-07-08T10:13:22;99491.94;;;32.78;33.18
24858;BME280;12935;50.782;6.074;2023-07-08T10:15:57;99493.97;;;32.90;33.51
24858;BME280;12935;50.782;6.074;2023-07-08T10:18:28;99493.41;;;33.05;34.40
24858;BME280;12935;50.782;6.074;2023-07-08T10:21:22;99493.91;;;33.17;33.09
24858;BME280;12935;50.782;6.074;2023-07-08T10:26:32;99493.94;;;33.37;33.21
24858;BME280;12935;50.782;6.074;2023-07-08T10:29:20;99491.31;;;33.60;32.64
24858;BME280;12935;50.782;6.074;2023-07-08T10:43:15;99481.81;;;34.71;30.30
24858;BME280;12935;50.782;6.074;2023-07-08T10:46:03;99491.38;;;34.97;30.49
24858;BME280;12935;50.782;6.074;2023-07-08T10:51:18;99489.22;;;35.33;29.65
24858;BME280;12935;50.782;6.074;2023-07-08T10:53:59;99494.16;;;35.33;29.37
24858;BME280;12935;50.782;6.074;2023-07-08T10:59:26;99497.03;;;35.86;29.48
24858;BME280;12935;50.782;6.074;2023-07-08T11:07:32;99487.88;;;36.33;29.53
24858;BME280;12935;50.782;6.074;2023-07-08T11:13:03;99490.72;;;36.33;28.04
24858;BME280;12935;50.782;6.074;2023-07-08T11:21:00;99491.63;;;36.51;28.36
24858;BME280;12935;50.782;6.074;2023-07-08T11:26:14;99488.88;;;36.68;29.61
24858;BME280;12935;50.782;6.074;2023-07-08T11:28:42;99485.47;;;37.10;29.23
24858;BME280;12935;50.782;6.074;2023-07-08T11:31:08;99484.84;;;37.19;30.08
24858;BME280;12935;50.782;6.074;2023-07-08T11:33:35;99483.69;;;37.22;29.61
24858;BME280;12935;50.782;6.074;2023-07-08T11:36:03;99484.88;;;37.44;29.19
24858;BME280;12935;50.782;6.074;2023-07-08T11:38:32;99485.22;;;37.48;28.87
24858;BME280;12935;50.782;6.074;2023-07-08T11:41:01;99485.91;;;37.56;27.97
24858;BME280;12935;50.782;6.074;2023-07-08T11:43:36;99491.94;;;37.43;27.82
24858;BME280;12935;50.782;6.074;2023-07-08T11:46:04;99479.97;;;37.86;28.98
24858;BME280;12935;50.782;6.074;2023-07-08T11:48:38;99487.66;;;37.51;28.62
24858;BME280;12935;50.782;6.074;2023-07-08T11:51:05;99479.94;;;37.44;28.43
24858;BME280;12935;50.782;6.074;2023-07-08T11:53:37;99488.25;;;37.50;28.71
24858;BME280;12935;50.782;6.074;2023-07-08T12:01:26;99479.78;;;35.92;28.76
24858;BME280;12935;50.782;6.074;2023-07-08T12:04:15;99473.91;;;35.67;30.54
24858;BME280;12935;50.782;6.074;2023-07-08T12:06:47;99478.50;;;34.96;29.81
24858;BME280;12935;50.782;6.074;2023-07-08T12:09:25;99475.22;;;34.76;30.40
24858;BME280;12935;50.782;6.074;2023-07-08T12:11:55;99481.19;;;35.01;31.35
24858;BME280;12935;50.782;6.074;2023-07-08T12:14:22;99480.38;;;35.82;31.38
24858;BME280;12935;50.782;6.074;2023-07-08T12:16:47;99477.28;;;35.58;31.24
24858;BME280;12935;50.782;6.074;2023-07-08T12:19:16;99478.16;;;34.92;31.64
24858;BME280;12935;50.782;6.074;2023-07-08T12:21:42;99477.16;;;34.81;31.74
24858;BME280;12935;50.782;6.074;2023-07-08T12:24:10;99474.44;;;34.32;32.67
24858;BME280;12935;50.782;6.074;2023-07-08T12:26:37;99472.78;;;34.08;32.19
24858;BME280;12935;50.782;6.074;2023-07-08T12:29:02;99472.13;;;33.95;33.75
24858;BME280;12935;50.782;6.074;2023-07-08T12:31:29;99476.59;;;33.83;33.89
24858;BME280;12935;50.782;6.074;2023-07-08T12:33:57;99472.66;;;33.65;33.72
24858;BME280;12935;50.782;6.074;2023-07-08T12:36:28;99468.34;;;33.71;35.51
24858;BME280;12935;50.782;6.074;2023-07-08T12:38:57;99469.66;;;33.70;34.04
24858;BME280;12935;50.782;6.074;2023-07-08T12:41:32;99466.69;;;33.55;33.92
24858;BME280;12935;50.782;6.074;2023-07-08T12:43:59;99467.34;;;34.18;33.92
24858;BME280;12935;50.782;6.074;2023-07-08T12:46:26;99462.47;;;35.13;32.80
24858;BME280;12935;50.782;6.074;2023-07-08T12:48:52;99470.13;;;35.57;32.13
24858;BME280;12935;50.782;6.074;2023-07-08T12:51:20;99463.19;;;34.91;31.87
24858;BME280;12935;50.782;6.074;2023-07-08T12:53:49;99451.66;;;35.12;32.66
24858;BME280;12935;50.782;6.074;2023-07-08T12:56:16;99459.88;;;35.76;30.94
24858;BME280;12935;50.782;6.074;2023-07-08T12:58:48;99455.34;;;35.50;32.13
24858;BME280;12935;50.782;6.074;2023-07-08T13:01:19;99452.31;;;34.74;33.06
24858;BME280;12935;50.782;6.074;2023-07-08T13:03:52;99456.16;;;34.77;32.05
24858;BME280;12935;50.782;6.074;2023-07-08T13:06:21;99459.03;;;35.00;32.34
24858;BME280;12935;50.782;6.074;2023-07-08T13:08:48;99463.72;;;34.38;32.02
24858;BME280;12935;50.782;6.074;2023-07-08T13:11:15;99467.44;;;33.97;32.29
24858;BME280;12935;50.782;6.074;2023-07-08T13:13:55;99464.19;;;33.93;33.18
24858;BME280;12935;50.782;6.074;2023-07-08T13:16:23;99470.97;;;34.47;33.98
24858;BME280;12935;50.782;6.074;2023-07-08T13:18:51;99465.84;;;34.45;33.96
24858;BME280;12935;50.782;6.074;2023-07-08T13:21:16;99468.97;;;34.06;34.76
24858;BME280;12935;50.782;6.074;2023-07-08T13:23:43;99471.03;;;33.98;35.54
24858;BME280;12935;50.782;6.074;2023-07-08T13:26:13;99469.91;;;33.52;35.85
24858;BME280;12935;50.782;6.074;2023-07-08T13:28:40;99478.88;;;33.08;34.99
24858;BME280;12935;50.782;6.074;2023-07-08T13:31:20;99477.56;;;33.09;34.63
24858;BME280;12935;50.782;6.074;2023-07-08T13:33:51;99481.78;;;33.29;36.59
24858;BME280;12935;50.782;6.074;2023-07-08T13:36:19;99474.09;;;33.79;36.70
24858;BME280;12935;50.782;6.074;2023-07-08T13:38:45;99481.19;;;33.93;37.32
24858;BME280;12935;50.782;6.074;2023-07-08T13:41:18;99476.69;;;34.26;35.08
24858;BME280;12935;50.782;6.074;2023-07-08T13:43:44;99485.34;;;34.93;32.56
24858;BME280;12935;50.782;6.074;2023-07-08T13:46:29;99477.63;;;34.57;32.19
24858;BME280;12935;50.782;6.074;2023-07-08T13:48:55;99474.28;;;34.74;33.00
24858;BME280;12935;50.782;6.074;2023-07-08T13:51:22;99475.00;;;35.26;32.03
24858;BME280;12935;50.782;6.074;2023-07-08T13:53:58;99480.94;;;36.59;29.50
24858;BME280;12935;50.782;6.074;2023-07-08T13:56:28;99476.84;;;38.17;28.30
24858;BME280;12935;50.782;6.074;2023-07-08T13:59:02;99475.81;;;41.28;25.03